sensor_id;sensor_type;location;lat;lon;timestamp;pressure;altitude;pressure_sealevel;temperature;humidity
75188;BME280;63762;51.334;22.108;2023-09-19T00:07:53;101232.58;;;20.04;68.23
75188;BME280;63762;51.334;22.108;2023-09-19T00:17:58;101232.94;;;19.93;68.54
75188;BME280;63762;51.334;22.108;2023-09-19T00:28:05;101244.53;;;19.87;70.38
75188;BME280;63762;51.334;22.108;2023-09-19T00:38:12;101238.52;;;19.67;69.79
75188;BME280;63762;51.334;22.108;2023-09-19T00:48:22;101212.74;;;19.62;69.67
75188;BME280;63762;51.334;22.108;2023-09-19T00:58:26;101206.77;;;19.58;69.73
75188;BME280;63762;51.334;22.108;2023-09-19T01:08:35;101195.15;;;19.48;70.00
75188;BME280;63762;51.334;22.108;2023-09-19T01:39:04;101162.82;;;19.20;70.69
75188;BME280;63762;51.334;22.108;2023-09-19T01:59:26;101142.20;;;19.17;70.48
75188;BME280;63762;51.334;22.108;2023-09-19T02:09:29;101137.19;;;19.05;71.05
75188;BME280;63762;51.334;22.108;2023-09-19T02:19:30;101127.82;;;18.99;70.91
75188;BME280;63762;51.334;22.108;2023-09-19T02:29:33;101123.55;;;18.97;71.35
75188;BME280;63762;51.334;22.108;2023-09-19T02:39:37;101123.67;;;18.87;71.63
75188;BME280;63762;51.334;22.108;2023-09-19T02:49:44;101114.30;;;18.82;71.80
75188;BME280;63762;51.334;22.108;2023-09-19T02:59:52;101103.92;;;18.85;71.49
75188;BME280;63762;51.334;22.108;2023-09-19T03:09:59;101104.09;;;18.92;71.12
75188;BME280;63762;51.334;22.108;2023-09-19T03:20:07;101078.36;;;18.86;71.25
75188;BME280;63762;51.334;22.108;2023-09-19T03:30:13;101080.87;;;18.72;71.88
75188;BME280;63762;51.334;22.108;2023-09-19T03:40:20;101074.76;;;18.78;71.53
75188;BME280;63762;51.334;22.108;2023-09-19T03:50:27;101061.45;;;18.75;71.49
75188;BME280;63762;51.334;22.108;2023-09-19T04:00:34;101058.02;;;18.65;71.82
75188;BME280;63762;51.334;22.108;2023-09-19T04:10:42;101048.15;;;18.72;71.55
75188;BME280;63762;51.334;22.108;2023-09-19T04:20:52;101034.49;;;18.64;72.04
75188;BME280;63762;51.334;22.108;2023-09-19T04:30:56;101031.42;;;18.59;71.80
75188;BME280;63762;51.334;22.108;2023-09-19T04:41:03;101022.20;;;18.52;72.34
75188;BME280;63762;51.334;22.108;2023-09-19T04:51:10;101023.41;;;18.57;72.09
75188;BME280;63762;51.334;22.108;2023-09-19T05:01:17;101022.23;;;18.60;71.92
75188;BME280;63762;51.334;22.108;2023-09-19T05:11:24;101014.73;;;18.62;72.01
75188;BME280;63762;51.334;22.108;2023-09-19T05:21:31;101002.80;;;18.63;72.21
75188;BME280;63762;51.334;22.108;2023-09-19T05:31:39;100999.45;;;18.85;71.64
75188;BME280;63762;51.334;22.108;2023-09-19T05:41:45;101004.06;;;19.16;71.08
75188;BME280;63762;51.334;22.108;2023-09-19T05:51:53;100977.66;;;19.49;69.84
75188;BME280;63762;51.334;22.108;2023-09-19T06:02:00;100989.59;;;19.64;69.26
75188;BME280;63762;51.334;22.108;2023-09-19T06:12:07;100990.72;;;19.77;68.86
75188;BME280;63762;51.334;22.108;2023-09-19T06:22:16;101001.73;;;20.08;67.79
75188;BME280;63762;51.334;22.108;2023-09-19T06:32:27;101012.43;;;20.34;67.47
75188;BME280;63762;51.334;22.108;2023-09-19T06:42:29;101003.97;;;20.51;66.16
75188;BME280;63762;51.334;22.108;2023-09-19T06:52:35;101011.66;;;20.78;66.17
75188;BME280;63762;51.334;22.108;2023-09-19T07:02:42;101021.53;;;20.87;65.37
75188;BME280;63762;51.334;22.108;2023-09-19T07:12:59;101033.55;;;20.78;65.66
75188;BME280;63762;51.334;22.108;2023-09-19T07:23:01;101031.23;;;20.67;66.12
75188;BME280;63762;51.334;22.108;2023-09-19T07:33:05;101057.17;;;20.71;66.60
75188;BME280;63762;51.334;22.108;2023-09-19T07:43:11;101053.75;;;20.69;66.97
75188;BME280;63762;51.334;22.108;2023-09-19T07:53:18;101060.47;;;20.59;67.24
75188;BME280;63762;51.334;22.108;2023-09-19T08:03:25;101058.09;;;20.56;67.63
75188;BME280;63762;51.334;22.108;2023-09-19T08:13:32;101060.34;;;20.52;68.17
75188;BME280;63762;51.334;22.108;2023-09-19T08:23:40;101072.05;;;20.30;69.67
75188;BME280;63762;51.334;22.108;2023-09-19T08:33:47;101073.04;;;20.37;70.42
75188;BME280;63762;51.334;22.108;2023-09-19T08:43:54;101067.45;;;20.23;71.29
75188;BME280;63762;51.334;22.108;2023-09-19T08:54:06;101065.28;;;19.94;72.45
75188;BME280;63762;51.334;22.108;2023-09-19T09:04:09;101062.91;;;19.83;72.63
75188;BME280;63762;51.334;22.108;2023-09-19T09:14:15;101067.36;;;19.84;73.10
75188;BME280;63762;51.334;22.108;2023-09-19T09:24:29;101073.83;;;19.91;72.74
75188;BME280;63762;51.334;22.108;2023-09-19T09:34:34;101071.45;;;19.88;72.10
75188;BME280;63762;51.334;22.108;2023-09-19T09:44:36;101090.35;;;19.98;72.24
75188;BME280;63762;51.334;22.108;2023-09-19T10:04:56;101092.91;;;20.07;72.97
75188;BME280;63762;51.334;22.108;2023-09-19T10:15:18;101089.52;;;19.97;74.84
75188;BME280;63762;51.334;22.108;2023-09-19T10:25:21;101086.45;;;19.92;75.07
75188;BME280;63762;51.334;22.108;2023-09-19T10:35:24;101084.59;;;19.76;76.57
75188;BME280;63762;51.334;22.108;2023-09-19T10:45:26;101096.55;;;19.75;76.83
75188;BME280;63762;51.334;22.108;2023-09-19T10:55:31;101089.20;;;19.76;76.63
75188;BME280;63762;51.334;22.108;2023-09-19T11:05:33;101092.95;;;19.43;78.30
75188;BME280;63762;51.334;22.108;2023-09-19T11:25:54;101082.18;;;19.17;79.36
75188;BME280;63762;51.334;22.108;2023-09-19T11:46:12;101089.19;;;19.28;79.17
75188;BME280;63762;51.334;22.108;2023-09-19T11:56:24;101089.71;;;19.31;79.14
75188;BME280;63762;51.334;22.108;2023-09-19T12:06:29;101090.91;;;19.37;79.24
75188;BME280;63762;51.334;22.108;2023-09-19T12:16:30;101096.39;;;19.45;79.05
75188;BME280;63762;51.334;22.108;2023-09-19T12:26:40;101091.27;;;19.42;78.67
75188;BME280;63762;51.334;22.108;2023-09-19T12:36:42;101093.30;;;19.40;79.41
75188;BME280;63762;51.334;22.108;2023-09-19T12:46:45;101091.27;;;19.42;79.79
75188;BME280;63762;51.334;22.108;2023-09-19T12:56:52;101100.80;;;19.54;79.70
75188;BME280;63762;51.334;22.108;2023-09-19T13:06:59;101099.63;;;19.56;79.69
75188;BME280;63762;51.334;22.108;2023-09-19T13:17:08;101092.27;;;19.41;80.32
75188;BME280;63762;51.334;22.108;2023-09-19T13:27:21;101089.54;;;19.41;80.95
75188;BME280;63762;51.334;22.108;2023-09-19T13:37:23;101096.39;;;19.45;81.60
75188;BME280;63762;51.334;22.108;2023-09-19T13:47:27;101101.51;;;19.48;81.88
75188;BME280;63762;51.334;22.108;2023-09-19T13:57:34;101102.19;;;19.42;82.17
75188;BME280;63762;51.334;22.108;2023-09-19T14:07:44;101118.37;;;19.35;82.72
75188;BME280;63762;51.334;22.108;2023-09-19T14:17:49;101116.45;;;19.20;82.28
75188;BME280;63762;51.334;22.108;2023-09-19T14:27:56;101129.45;;;18.84;81.05
75188;BME280;63762;51.334;22.108;2023-09-19T14:38:03;101135.50;;;18.62;82.78
75188;BME280;63762;51.334;22.108;2023-09-19T14:48:10;101154.39;;;18.56;84.32
75188;BME280;63762;51.334;22.108;2023-09-19T14:58:20;101155.09;;;18.58;85.57
75188;BME280;63762;51.334;22.108;2023-09-19T15:08:24;101166.00;;;18.58;86.02
75188;BME280;63762;51.334;22.108;2023-09-19T15:18:31;101171.13;;;18.61;86.19
75188;BME280;63762;51.334;22.108;2023-09-19T15:28:39;101185.42;;;18.63;86.26
75188;BME280;63762;51.334;22.108;2023-09-19T15:49:02;101202.83;;;18.70;86.60
75188;BME280;63762;51.334;22.108;2023-09-19T15:59:04;101214.98;;;18.75;85.83
75188;BME280;63762;51.334;22.108;2023-09-19T16:09:08;101228.48;;;18.85;85.86
75188;BME280;63762;51.334;22.108;2023-09-19T16:19:14;101234.64;;;18.87;85.83
75188;BME280;63762;51.334;22.108;2023-09-19T16:29:21;101242.50;;;18.90;85.65
75188;BME280;63762;51.334;22.108;2023-09-19T16:39:29;101252.70;;;18.88;85.63
75188;BME280;63762;51.334;22.108;2023-09-19T16:49:36;101256.48;;;18.95;85.57
75188;BME280;63762;51.334;22.108;2023-09-19T17:09:52;101266.20;;;18.97;85.47
75188;BME280;63762;51.334;22.108;2023-09-19T17:19:57;101277.41;;;18.86;85.68
75188;BME280;63762;51.334;22.108;2023-09-19T17:30:08;101284.72;;;18.86;85.94
75188;BME280;63762;51.334;22.108;2023-09-19T17:40:12;101304.83;;;18.85;86.19
75188;BME280;63762;51.334;22.108;2023-09-19T17:50:18;101317.33;;;18.70;87.27
75188;BME280;63762;51.334;22.108;2023-09-19T18:00:25;101321.78;;;18.71;87.17
75188;BME280;63762;51.334;22.108;2023-09-19T18:10:36;101345.61;;;18.69;86.90
75188;BME280;63762;51.334;22.108;2023-09-19T18:20:40;101349.68;;;18.65;86.98
75188;BME280;63762;51.334;22.108;2023-09-19T18:30:47;101359.09;;;18.70;86.64
75188;BME280;63762;51.334;22.108;2023-09-19T18:40:54;101373.12;;;18.75;86.07
75188;BME280;63762;51.334;22.108;2023-09-19T18:51:07;101377.15;;;18.71;85.85
75188;BME280;63762;51.334;22.108;2023-09-19T19:01:10;101379.26;;;18.60;86.21
75188;BME280;63762;51.334;22.108;2023-09-19T19:11:16;101393.52;;;18.54;86.47
75188;BME280;63762;51.334;22.108;2023-09-19T19:21:22;101404.66;;;18.60;86.42
75188;BME280;63762;51.334;22.108;2023-09-19T19:31:30;101406.98;;;18.55;86.55
75188;BME280;63762;51.334;22.108;2023-09-19T19:41:37;101422.82;;;18.52;86.60
75188;BME280;63762;51.334;22.108;2023-09-19T19:51:44;101431.77;;;18.44;86.81
75188;BME280;63762;51.334;22.108;2023-09-19T20:01:51;101430.52;;;18.39;87.20
75188;BME280;63762;51.334;22.108;2023-09-19T20:11:58;101450.13;;;18.42;86.94
75188;BME280;63762;51.334;22.108;2023-09-19T20:22:05;101456.75;;;18.40;86.97
75188;BME280;63762;51.334;22.108;2023-09-19T20:32:12;101462.91;;;18.42;86.69
75188;BME280;63762;51.334;22.108;2023-09-19T20:42:20;101463.22;;;18.39;86.76
75188;BME280;63762;51.334;22.108;2023-09-19T20:52:26;101479.57;;;18.39;86.42
75188;BME280;63762;51.334;22.108;2023-09-19T21:02:35;101482.16;;;18.31;86.19
75188;BME280;63762;51.334;22.108;2023-09-19T21:12:41;101492.67;;;18.26;86.12
75188;BME280;63762;51.334;22.108;2023-09-19T21:22:48;101487.67;;;18.21;86.06
75188;BME280;63762;51.334;22.108;2023-09-19T21:32:55;101496.69;;;18.22;85.48
75188;BME280;63762;51.334;22.108;2023-09-19T21:43:03;101494.68;;;18.24;85.25
75188;BME280;63762;51.334;22.108;2023-09-19T21:53:09;101492.10;;;18.22;84.64
75188;BME280;63762;51.334;22.108;2023-09-19T22:03:17;101500.49;;;18.11;84.94
75188;BME280;63762;51.334;22.108;2023-09-19T22:13:23;101512.29;;;18.02;84.67
75188;BME280;63762;51.334;22.108;2023-09-19T22:26:40;101511.72;;;17.99;84.42
75188;BME280;63762;51.334;22.108;2023-09-19T22:36:47;101529.17;;;18.06;83.69
75188;BME280;63762;51.334;22.108;2023-09-19T22:46:57;101523.57;;;18.07;82.89
75188;BME280;63762;51.334;22.108;2023-09-19T22:57:01;101531.44;;;18.10;81.74
75188;BME280;63762;51.334;22.108;2023-09-19T23:07:09;101530.90;;;18.07;80.71
75188;BME280;63762;51.334;22.108;2023-09-19T23:17:15;101550.72;;;17.99;80.28
75188;BME280;63762;51.334;22.108;2023-09-19T23:27:24;101554.47;;;17.89;79.85
75188;BME280;63762;51.334;22.108;2023-09-19T23:37:33;101557.09;;;17.81;79.30
75188;BME280;63762;51.334;22.108;2023-09-19T23:47:36;101567.85;;;17.72;78.83
75188;BME280;63762;51.334;22.108;2023-09-19T23:57:43;101577.18;;;17.60;78.27
